createdAt,value
2017-08-21T00:00:16.375Z,14.23
2017-08-21T00:00:44.670Z,14.28
2017-08-21T00:01:12.872Z,14.24
2017-08-21T00:01:41.082Z,14.33
2017-08-21T00:02:09.204Z,14.2
2017-08-21T00:02:37.362Z,14.3
2017-08-21T00:03:05.588Z,14.3
2017-08-21T00:03:34.179Z,14.3
2017-08-21T00:04:02.438Z,14.28
2017-08-21T00:04:30.607Z,14.2
2017-08-21T00:04:58.850Z,14.33
2017-08-21T00:05:26.942Z,14.3
2017-08-21T00:05:54.902Z,14.28
2017-08-21T00:06:23.680Z,14.31
2017-08-21T00:06:51.789Z,14.31
2017-08-21T00:07:19.932Z,14.3
2017-08-21T00:07:47.980Z,14.33
2017-08-21T00:08:16.245Z,14.3
2017-08-21T00:08:44.397Z,14.31
2017-08-21T00:09:12.658Z,14.34
2017-08-21T00:09:40.795Z,14.2
2017-08-21T00:10:08.936Z,14.33
2017-08-21T00:10:37.104Z,14.3
2017-08-21T00:11:05.287Z,14.3
2017-08-21T00:11:33.431Z,14.2
2017-08-21T00:12:01.696Z,14.34
2017-08-21T00:12:29.944Z,14.21
2017-08-21T00:12:58.113Z,14.23
2017-08-21T00:13:26.401Z,14.21
2017-08-21T00:13:54.535Z,14.24
2017-08-21T00:14:22.707Z,14.23
2017-08-21T00:14:50.926Z,14.2
2017-08-21T00:15:19.047Z,14.26
2017-08-21T00:15:47.287Z,14.26
2017-08-21T00:16:15.239Z,14.24
2017-08-21T00:16:43.456Z,14.2
2017-08-21T00:17:11.586Z,14.24
2017-08-21T00:17:39.681Z,14.23
2017-08-21T00:18:07.832Z,14.27
2017-08-21T00:18:36.167Z,14.24
2017-08-21T00:19:04.387Z,14.24
2017-08-21T00:19:32.599Z,14.28
2017-08-21T00:20:00.891Z,14.26
2017-08-21T00:20:29.037Z,14.21
2017-08-21T00:20:57.234Z,14.24
2017-08-21T00:21:25.339Z,14.24
2017-08-21T00:21:53.618Z,14.24
2017-08-21T00:22:21.649Z,14.3
2017-08-21T00:22:49.794Z,14.2
2017-08-21T00:23:17.856Z,14.26
2017-08-21T00:23:46.201Z,14.21
2017-08-21T00:24:14.327Z,14.21
2017-08-21T00:24:42.613Z,14.24
2017-08-21T00:25:10.882Z,14.24
2017-08-21T00:25:39.142Z,14.23
2017-08-21T00:26:07.342Z,14.21
2017-08-21T00:26:35.543Z,14.28
2017-08-21T00:27:03.828Z,14.19
2017-08-21T00:27:31.991Z,14.23
2017-08-21T00:28:00.235Z,14.3
2017-08-21T00:28:28.384Z,14.27
2017-08-21T00:28:56.672Z,14.3
2017-08-21T00:29:24.821Z,14.19
2017-08-21T00:29:52.951Z,14.28
2017-08-21T00:30:21.015Z,14.31
2017-08-21T00:30:49.195Z,14.23
2017-08-21T00:31:17.463Z,14.3
2017-08-21T00:31:45.671Z,14.3
2017-08-21T00:32:13.734Z,14.3
2017-08-21T00:32:41.864Z,14.28
2017-08-21T00:33:09.920Z,14.34
2017-08-21T00:33:38.170Z,14.21
2017-08-21T00:34:06.332Z,14.3
2017-08-21T00:34:34.287Z,14.26
2017-08-21T00:35:02.358Z,14.3
2017-08-21T00:35:30.503Z,14.27
2017-08-21T00:35:58.721Z,14.24
2017-08-21T00:36:26.792Z,14.33
2017-08-21T00:36:54.959Z,14.24
2017-08-21T00:37:23.093Z,14.3
2017-08-21T00:37:51.222Z,14.3
2017-08-21T00:38:19.474Z,14.21
2017-08-21T00:38:47.748Z,14.21
2017-08-21T00:39:15.954Z,14.23
2017-08-21T00:39:44.089Z,14.34
2017-08-21T00:40:12.290Z,14.27
2017-08-21T00:40:40.454Z,14.24
2017-08-21T00:41:08.625Z,14.24
2017-08-21T00:41:36.837Z,14.28
2017-08-21T00:42:04.974Z,14.26
2017-08-21T00:42:33.158Z,14.3
2017-08-21T00:43:01.397Z,14.3
2017-08-21T00:43:29.524Z,14.26
2017-08-21T00:43:57.600Z,14.3
2017-08-21T00:44:25.721Z,14.24
2017-08-21T00:44:53.690Z,14.24
2017-08-21T00:45:21.826Z,14.26
2017-08-21T00:45:49.915Z,14.3
2017-08-21T00:46:18.106Z,14.26
2017-08-21T00:46:46.100Z,14.19
2017-08-21T00:47:14.126Z,14.31
2017-08-21T00:47:42.223Z,14.27
2017-08-21T00:48:10.497Z,14.27
2017-08-21T00:48:38.474Z,14.27
2017-08-21T00:49:06.697Z,14.31
2017-08-21T00:49:34.932Z,14.33
2017-08-21T00:50:03.170Z,14.28
2017-08-21T00:50:31.300Z,14.27
2017-08-21T00:50:59.412Z,14.19
2017-08-21T00:51:27.228Z,14.31
2017-08-21T00:51:55.462Z,14.21
2017-08-21T00:52:23.626Z,14.3
2017-08-21T00:52:51.688Z,14.24
2017-08-21T00:53:19.803Z,14.21
2017-08-21T00:53:48.007Z,14.34
2017-08-21T00:54:16.181Z,14.3
2017-08-21T00:54:44.302Z,14.26
2017-08-21T00:55:12.455Z,14.34
2017-08-21T00:55:40.627Z,14.27
2017-08-21T00:56:08.818Z,14.33
2017-08-21T00:56:36.984Z,14.19
2017-08-21T00:57:05.255Z,14.3
2017-08-21T00:57:33.414Z,14.23
2017-08-21T00:58:01.545Z,14.3
2017-08-21T00:58:29.822Z,14.27
2017-08-21T00:58:58.008Z,14.31
2017-08-21T00:59:26.185Z,14.2
2017-08-21T00:59:54.308Z,14.33
2017-08-21T01:00:23.191Z,14.33
2017-08-21T01:00:51.370Z,14.3
2017-08-21T01:01:19.608Z,14.28
2017-08-21T01:01:47.871Z,14.27
2017-08-21T01:02:16.187Z,14.3
2017-08-21T01:02:44.403Z,14.3
2017-08-21T01:03:12.435Z,14.28
2017-08-21T01:03:40.442Z,14.31
2017-08-21T01:04:08.828Z,14.36
2017-08-21T01:04:36.963Z,14.3
2017-08-21T01:05:05.116Z,14.34
2017-08-21T01:05:33.266Z,14.36
2017-08-21T01:06:01.521Z,14.31
2017-08-21T01:06:29.745Z,14.39
2017-08-21T01:06:57.858Z,14.36
2017-08-21T01:07:25.868Z,14.38
2017-08-21T01:07:54.086Z,14.36
2017-08-21T01:08:22.205Z,14.31
2017-08-21T01:08:50.386Z,14.33
2017-08-21T01:09:18.716Z,14.36
2017-08-21T01:09:46.752Z,14.31
2017-08-21T01:10:14.812Z,14.31
2017-08-21T01:10:42.854Z,14.31
2017-08-21T01:11:11.095Z,14.33
2017-08-21T01:11:39.384Z,14.31
2017-08-21T01:12:07.846Z,14.28
2017-08-21T01:12:35.948Z,14.36
2017-08-21T01:13:04.013Z,14.3
2017-08-21T01:13:32.141Z,14.3
2017-08-21T01:14:00.421Z,14.28
2017-08-21T01:14:28.755Z,14.36
2017-08-21T01:14:57.018Z,14.34
2017-08-21T01:15:24.990Z,14.34
2017-08-21T01:15:53.112Z,14.38
2017-08-21T01:16:21.289Z,14.38
2017-08-21T01:16:49.421Z,14.36
2017-08-21T01:17:17.548Z,14.36
2017-08-21T01:17:45.952Z,14.33
2017-08-21T01:18:14.240Z,14.36
2017-08-21T01:18:42.731Z,14.41
2017-08-21T01:19:11.372Z,14.3
2017-08-21T01:19:39.378Z,14.36
2017-08-21T01:20:07.569Z,14.36
2017-08-21T01:20:35.730Z,14.38
2017-08-21T01:21:03.889Z,14.39
2017-08-21T01:21:32.053Z,14.34
2017-08-21T01:22:00.162Z,14.34
2017-08-21T01:22:28.317Z,14.33
2017-08-21T01:22:56.437Z,14.34
2017-08-21T01:23:24.683Z,14.39
2017-08-21T01:23:52.807Z,14.33
2017-08-21T01:24:21.246Z,14.3
2017-08-21T01:24:49.273Z,14.38
2017-08-21T01:25:17.414Z,14.38
2017-08-21T01:25:45.549Z,14.36
2017-08-21T01:26:13.678Z,14.41
2017-08-21T01:26:41.632Z,14.34
2017-08-21T01:27:09.906Z,14.34
2017-08-21T01:27:38.037Z,14.39
2017-08-21T01:28:06.260Z,14.41
2017-08-21T01:28:34.380Z,14.36
2017-08-21T01:29:02.405Z,14.36
2017-08-21T01:29:30.745Z,14.33
2017-08-21T01:29:58.845Z,14.39
2017-08-21T01:30:27.006Z,14.33
2017-08-21T01:30:55.023Z,14.31
2017-08-21T01:31:23.176Z,14.31
2017-08-21T01:31:51.358Z,14.38
2017-08-21T01:32:19.405Z,14.36
2017-08-21T01:32:47.585Z,14.34
2017-08-21T01:33:15.688Z,14.31
2017-08-21T01:33:43.855Z,14.34
2017-08-21T01:34:11.991Z,14.33
2017-08-21T01:34:40.288Z,14.34
2017-08-21T01:35:08.543Z,14.31
2017-08-21T01:35:36.756Z,14.39
2017-08-21T01:36:04.923Z,14.36
2017-08-21T01:36:33.024Z,14.31
2017-08-21T01:37:01.160Z,14.33
2017-08-21T01:37:29.196Z,14.34
2017-08-21T01:37:57.428Z,14.34
2017-08-21T01:38:25.608Z,14.28
2017-08-21T01:38:53.793Z,14.36
2017-08-21T01:39:21.940Z,14.33
2017-08-21T01:39:50.053Z,14.34
2017-08-21T01:40:18.201Z,14.36
2017-08-21T01:40:46.204Z,14.31
2017-08-21T01:41:14.458Z,14.36
2017-08-21T01:41:42.615Z,14.31
2017-08-21T01:42:10.738Z,14.3
2017-08-21T01:42:39.009Z,14.36
2017-08-21T01:43:07.221Z,14.34
2017-08-21T01:43:35.376Z,14.31
2017-08-21T01:44:03.599Z,14.36
2017-08-21T01:44:31.712Z,14.3
2017-08-21T01:45:00.010Z,14.33
2017-08-21T01:45:28.284Z,14.3
2017-08-21T01:45:56.544Z,14.26
2017-08-21T01:46:24.651Z,14.28
2017-08-21T01:46:52.539Z,14.23
2017-08-21T01:47:20.684Z,14.24
2017-08-21T01:47:48.952Z,14.28
2017-08-21T01:48:17.108Z,14.2
2017-08-21T01:48:45.243Z,14.19
2017-08-21T01:49:13.514Z,14.24
2017-08-21T01:49:41.730Z,14.16
2017-08-21T01:50:09.960Z,14.23
2017-08-21T01:50:38.105Z,14.3
2017-08-21T01:51:06.271Z,14.23
2017-08-21T01:51:34.500Z,14.3
2017-08-21T01:52:02.558Z,14.28
2017-08-21T01:52:30.705Z,14.34
2017-08-21T01:52:58.862Z,14.28
2017-08-21T01:53:27.014Z,14.3
2017-08-21T01:53:55.238Z,14.31
2017-08-21T01:54:23.349Z,14.28
2017-08-21T01:54:51.845Z,14.28
2017-08-21T01:55:19.853Z,14.3
2017-08-21T01:55:48.081Z,14.23
2017-08-21T01:56:16.236Z,14.23
2017-08-21T01:56:44.388Z,14.24
2017-08-21T01:57:12.525Z,14.23
2017-08-21T01:57:40.672Z,14.27
2017-08-21T01:58:08.750Z,14.28
2017-08-21T01:58:36.831Z,14.26
2017-08-21T01:59:04.772Z,14.24
2017-08-21T01:59:32.734Z,14.21
2017-08-21T02:00:01.075Z,14.2
2017-08-21T02:00:29.310Z,14.21
2017-08-21T02:00:57.546Z,14.21
2017-08-21T02:01:25.788Z,14.21
2017-08-21T02:01:53.825Z,14.28
2017-08-21T02:02:21.972Z,14.23
2017-08-21T02:02:50.094Z,14.21
2017-08-21T02:03:18.285Z,14.26
2017-08-21T02:03:46.433Z,14.2
2017-08-21T02:04:14.404Z,14.24
2017-08-21T02:04:42.553Z,14.26
2017-08-21T02:05:10.769Z,14.21
2017-08-21T02:05:38.954Z,14.26
2017-08-21T02:06:07.117Z,14.2
2017-08-21T02:06:35.177Z,14.26
2017-08-21T02:07:03.208Z,14.23
2017-08-21T02:07:31.476Z,14.28
2017-08-21T02:07:59.382Z,14.27
2017-08-21T02:08:27.516Z,14.26
2017-08-21T02:08:55.556Z,14.24
2017-08-21T02:09:23.704Z,14.26
2017-08-21T02:09:52.255Z,14.26
2017-08-21T02:10:20.712Z,14.21
2017-08-21T02:10:48.737Z,14.26
2017-08-21T02:11:16.927Z,14.26
2017-08-21T02:11:45.121Z,14.26
2017-08-21T02:12:13.333Z,14.21
2017-08-21T02:12:41.522Z,14.23
2017-08-21T02:13:09.450Z,14.23
2017-08-21T02:13:37.684Z,14.23
2017-08-21T02:14:05.895Z,14.19
2017-08-21T02:14:34.121Z,14.23
2017-08-21T02:15:02.338Z,14.21
2017-08-21T02:15:30.364Z,14.21
2017-08-21T02:15:58.494Z,14.24
2017-08-21T02:16:26.540Z,14.13
2017-08-21T02:16:54.730Z,14.26
2017-08-21T02:17:22.961Z,14.26
2017-08-21T02:17:51.199Z,14.24
2017-08-21T02:18:19.481Z,14.24
2017-08-21T02:18:47.877Z,14.27
2017-08-21T02:19:16.295Z,14.26
2017-08-21T02:19:44.476Z,14.21
2017-08-21T02:20:12.570Z,14.26
2017-08-21T02:20:40.928Z,14.21
2017-08-21T02:21:09.216Z,14.2
2017-08-21T02:21:37.554Z,14.19
2017-08-21T02:22:05.789Z,14.21
2017-08-21T02:22:33.919Z,14.21
2017-08-21T02:23:01.909Z,14.2
2017-08-21T02:23:30.079Z,14.24
2017-08-21T02:23:57.889Z,14.24
2017-08-21T02:24:25.851Z,14.21
2017-08-21T02:24:54.108Z,14.2
2017-08-21T02:25:22.411Z,14.24
2017-08-21T02:25:50.566Z,14.23
2017-08-21T02:26:18.679Z,14.24
2017-08-21T02:26:46.884Z,14.24
2017-08-21T02:27:15.169Z,14.23
2017-08-21T02:27:43.344Z,14.24
2017-08-21T02:28:11.531Z,14.21
2017-08-21T02:28:39.670Z,14.28
2017-08-21T02:29:07.808Z,14.2
2017-08-21T02:29:36.046Z,14.2
2017-08-21T02:30:04.210Z,14.2
2017-08-21T02:30:32.487Z,14.2
2017-08-21T02:31:00.663Z,14.15
2017-08-21T02:31:28.698Z,14.2
2017-08-21T02:31:56.863Z,14.19
2017-08-21T02:32:25.009Z,14.23
2017-08-21T02:32:53.286Z,14.2
2017-08-21T02:33:21.499Z,14.19
2017-08-21T02:33:49.538Z,14.19
2017-08-21T02:34:17.772Z,14.15
2017-08-21T02:34:45.996Z,14.16
2017-08-21T02:35:14.035Z,14.15
2017-08-21T02:35:42.302Z,14.16
2017-08-21T02:36:10.410Z,14.15
2017-08-21T02:36:38.640Z,14.16
2017-08-21T02:37:06.809Z,14.16
2017-08-21T02:37:34.931Z,14.19
2017-08-21T02:38:03.185Z,14.23
2017-08-21T02:38:31.311Z,14.2
2017-08-21T02:38:59.592Z,14.16
2017-08-21T02:39:27.769Z,14.2
2017-08-21T02:39:55.957Z,14.13
2017-08-21T02:40:24.113Z,14.19
2017-08-21T02:40:52.258Z,14.16
2017-08-21T02:41:20.219Z,14.13
2017-08-21T02:41:48.308Z,14.16
2017-08-21T02:42:16.446Z,14.15
2017-08-21T02:42:44.670Z,14.16
2017-08-21T02:43:12.811Z,14.16
2017-08-21T02:43:41.098Z,14.08
2017-08-21T02:44:09.318Z,14.11
2017-08-21T02:44:37.562Z,14.12
2017-08-21T02:45:05.703Z,14.15
2017-08-21T02:45:33.955Z,14.21
2017-08-21T02:46:02.183Z,14.19
2017-08-21T02:46:30.389Z,14.16
2017-08-21T02:46:58.437Z,14.19
2017-08-21T02:47:26.698Z,14.16
2017-08-21T02:47:54.911Z,14.16
2017-08-21T02:48:23.141Z,14.19
2017-08-21T02:48:51.219Z,14.15
2017-08-21T02:49:19.442Z,14.13
2017-08-21T02:49:47.569Z,14.08
2017-08-21T02:50:15.833Z,14.16
2017-08-21T02:50:44.202Z,14.08
2017-08-21T02:51:12.399Z,14.08
2017-08-21T02:51:40.574Z,14.2
2017-08-21T02:52:08.677Z,14.08
2017-08-21T02:52:36.884Z,14.19
2017-08-21T02:53:04.897Z,14.08
2017-08-21T02:53:33.169Z,14.11
2017-08-21T02:54:01.200Z,14.11
2017-08-21T02:54:29.147Z,14.12
2017-08-21T02:54:57.315Z,14.08
2017-08-21T02:55:25.478Z,14.08
2017-08-21T02:55:53.801Z,14.05
2017-08-21T02:56:21.897Z,14.06
2017-08-21T02:56:50.139Z,14.05
2017-08-21T02:57:18.121Z,14.09
2017-08-21T02:57:46.221Z,14.08
2017-08-21T02:58:14.412Z,14.05
2017-08-21T02:58:42.586Z,14.06
2017-08-21T02:59:10.718Z,14.01
2017-08-21T02:59:38.899Z,13.99
2017-08-21T03:00:07.095Z,14.08
2017-08-21T03:00:34.975Z,14.01
2017-08-21T03:01:03.034Z,13.97
2017-08-21T03:01:31.291Z,13.95
2017-08-21T03:01:59.462Z,13.95
2017-08-21T03:02:27.706Z,13.93
2017-08-21T03:02:55.986Z,13.87
2017-08-21T03:03:24.143Z,13.9
2017-08-21T03:03:52.417Z,13.95
2017-08-21T03:04:20.461Z,13.88
2017-08-21T03:04:48.621Z,13.88
2017-08-21T03:05:16.760Z,13.87
2017-08-21T03:05:45.040Z,13.87
2017-08-21T03:06:13.092Z,13.81
2017-08-21T03:06:41.275Z,13.86
2017-08-21T03:07:09.300Z,13.78
2017-08-21T03:07:37.543Z,13.72
2017-08-21T03:08:05.586Z,13.73
2017-08-21T03:08:33.686Z,13.76
2017-08-21T03:09:01.893Z,13.78
2017-08-21T03:09:30.061Z,13.72
2017-08-21T03:09:58.264Z,13.69
2017-08-21T03:10:26.399Z,13.63
2017-08-21T03:10:54.616Z,13.63
2017-08-21T03:11:22.823Z,13.65
2017-08-21T03:11:51.042Z,13.62
2017-08-21T03:12:19.277Z,13.69
2017-08-21T03:12:47.325Z,13.68
2017-08-21T03:13:15.337Z,13.66
2017-08-21T03:13:43.494Z,13.63
2017-08-21T03:14:11.555Z,13.6
2017-08-21T03:14:39.619Z,13.5
2017-08-21T03:15:07.522Z,13.55
2017-08-21T03:15:35.560Z,13.51
2017-08-21T03:16:03.901Z,13.54
2017-08-21T03:16:32.057Z,13.45
2017-08-21T03:17:00.186Z,13.4
2017-08-21T03:17:28.208Z,13.4
2017-08-21T03:17:56.346Z,13.5
2017-08-21T03:18:24.514Z,13.37
2017-08-21T03:18:52.663Z,13.4
2017-08-21T03:19:20.819Z,13.39
2017-08-21T03:19:48.957Z,13.4
2017-08-21T03:20:17.096Z,13.44
2017-08-21T03:20:45.214Z,13.39
2017-08-21T03:21:13.425Z,13.36
2017-08-21T03:21:41.449Z,13.31
2017-08-21T03:22:09.609Z,13.29
2017-08-21T03:22:37.780Z,13.31
2017-08-21T03:23:05.754Z,13.32
2017-08-21T03:23:34.011Z,13.31
2017-08-21T03:24:02.308Z,13.32
2017-08-21T03:24:30.565Z,13.32
2017-08-21T03:24:58.773Z,13.29
2017-08-21T03:25:26.951Z,13.35
2017-08-21T03:25:55.195Z,13.27
2017-08-21T03:26:23.542Z,13.31
2017-08-21T03:26:51.698Z,13.29
2017-08-21T03:27:19.848Z,13.29
2017-08-21T03:27:47.881Z,13.36
2017-08-21T03:28:16.024Z,13.32
2017-08-21T03:28:44.236Z,13.29
2017-08-21T03:29:12.403Z,13.25
2017-08-21T03:29:40.436Z,13.25
2017-08-21T03:30:08.473Z,13.24
2017-08-21T03:30:36.635Z,13.2
2017-08-21T03:31:04.967Z,13.21
2017-08-21T03:31:33.144Z,13.25
2017-08-21T03:32:01.356Z,13.25
2017-08-21T03:32:29.399Z,13.25
2017-08-21T03:32:57.566Z,13.27
2017-08-21T03:33:25.640Z,13.29
2017-08-21T03:33:53.758Z,13.19
2017-08-21T03:34:21.892Z,13.21
2017-08-21T03:34:49.759Z,13.21
2017-08-21T03:35:17.994Z,13.27
2017-08-21T03:35:46.069Z,13.2
2017-08-21T03:36:14.324Z,13.19
2017-08-21T03:36:42.469Z,13.16
2017-08-21T03:37:10.611Z,13.25
2017-08-21T03:37:38.741Z,13.17
2017-08-21T03:38:06.952Z,13.16
2017-08-21T03:38:35.122Z,13.17
2017-08-21T03:39:03.286Z,13.14
2017-08-21T03:39:31.359Z,13.11
2017-08-21T03:39:59.505Z,13.13
2017-08-21T03:40:27.471Z,13.1
2017-08-21T03:40:55.688Z,13.1
2017-08-21T03:41:23.959Z,13.06
2017-08-21T03:41:52.090Z,13.09
2017-08-21T03:42:20.316Z,13.09
2017-08-21T03:42:48.554Z,13.06
2017-08-21T03:43:16.789Z,13.06
2017-08-21T03:43:44.815Z,13.07
2017-08-21T03:44:13.031Z,13.06
2017-08-21T03:44:41.238Z,13.13
2017-08-21T03:45:09.152Z,13.01
2017-08-21T03:45:37.355Z,13.03
2017-08-21T03:46:05.554Z,13.06
2017-08-21T03:46:33.894Z,13.09
2017-08-21T03:47:02.046Z,13.02
2017-08-21T03:47:30.266Z,12.96
2017-08-21T03:47:58.468Z,12.99
2017-08-21T03:48:26.412Z,13.02
2017-08-21T03:48:54.466Z,12.96
2017-08-21T03:49:22.463Z,12.99
2017-08-21T03:49:50.664Z,12.96
2017-08-21T03:50:18.826Z,12.99
2017-08-21T03:50:47.013Z,12.95
2017-08-21T03:51:15.251Z,12.95
2017-08-21T03:51:43.634Z,12.96
2017-08-21T03:52:11.693Z,12.94
2017-08-21T03:52:39.825Z,12.98
2017-08-21T03:53:08.010Z,12.88
2017-08-21T03:53:36.069Z,12.96
2017-08-21T03:54:04.216Z,12.95
2017-08-21T03:54:32.254Z,12.88
2017-08-21T03:55:00.402Z,12.96
2017-08-21T03:55:28.550Z,12.95
2017-08-21T03:55:56.647Z,12.89
2017-08-21T03:56:25.084Z,12.86
2017-08-21T03:56:53.227Z,12.86
2017-08-21T03:57:21.366Z,12.86
2017-08-21T03:57:49.493Z,12.92
2017-08-21T03:58:17.588Z,12.95
2017-08-21T03:58:45.806Z,12.88
2017-08-21T03:59:13.904Z,12.88
2017-08-21T03:59:41.822Z,12.96
2017-08-21T04:00:10.062Z,12.88
2017-08-21T04:00:38.165Z,12.88
2017-08-21T04:01:06.431Z,12.83
2017-08-21T04:01:34.729Z,12.89
2017-08-21T04:02:02.789Z,12.92
2017-08-21T04:02:30.967Z,12.92
2017-08-21T04:02:59.248Z,12.89
2017-08-21T04:03:27.502Z,12.84
2017-08-21T04:03:55.453Z,12.86
2017-08-21T04:04:23.614Z,12.92
2017-08-21T04:04:51.631Z,12.88
2017-08-21T04:05:19.827Z,12.91
2017-08-21T04:05:47.999Z,12.84
2017-08-21T04:06:16.078Z,12.89
2017-08-21T04:06:44.288Z,12.81
2017-08-21T04:07:12.542Z,12.8
2017-08-21T04:07:40.637Z,12.73
2017-08-21T04:08:08.721Z,12.73
2017-08-21T04:08:36.982Z,12.76
2017-08-21T04:09:05.207Z,12.76
2017-08-21T04:09:33.402Z,12.76
2017-08-21T04:10:01.528Z,12.61
2017-08-21T04:10:29.715Z,12.69
2017-08-21T04:10:57.849Z,12.61
2017-08-21T04:11:25.943Z,12.63
2017-08-21T04:11:54.073Z,12.61
2017-08-21T04:12:22.211Z,12.58
2017-08-21T04:12:50.384Z,12.56
2017-08-21T04:13:18.519Z,12.58
2017-08-21T04:13:46.590Z,12.53
2017-08-21T04:14:14.647Z,12.48
2017-08-21T04:14:42.911Z,12.45
2017-08-21T04:15:11.140Z,12.48
2017-08-21T04:15:39.352Z,12.47
2017-08-21T04:16:07.399Z,12.44
2017-08-21T04:16:35.622Z,12.45
2017-08-21T04:17:03.948Z,12.45
2017-08-21T04:17:32.135Z,12.53
2017-08-21T04:18:00.278Z,12.44
2017-08-21T04:18:28.518Z,12.52
2017-08-21T04:18:56.768Z,12.51
2017-08-21T04:19:25.066Z,12.47
2017-08-21T04:19:53.211Z,12.43
2017-08-21T04:20:21.370Z,12.45
2017-08-21T04:20:49.470Z,12.44
2017-08-21T04:21:17.647Z,12.31
2017-08-21T04:21:45.824Z,12.26
2017-08-21T04:22:14.053Z,12.34
2017-08-21T04:22:42.208Z,12.25
2017-08-21T04:23:10.379Z,12.26
2017-08-21T04:23:38.510Z,12.15
2017-08-21T04:24:06.715Z,12.15
2017-08-21T04:24:34.978Z,12.08
2017-08-21T04:25:03.162Z,12.11
2017-08-21T04:25:31.412Z,12.18
2017-08-21T04:25:59.522Z,12.1
2017-08-21T04:26:27.667Z,12.13
2017-08-21T04:26:55.744Z,12.13
2017-08-21T04:27:23.837Z,12.11
2017-08-21T04:27:51.987Z,12.08
2017-08-21T04:28:20.252Z,12.1
2017-08-21T04:28:48.443Z,12.11
2017-08-21T04:29:16.471Z,12.05
2017-08-21T04:29:44.629Z,12.13
2017-08-21T04:30:12.899Z,12.04
2017-08-21T04:30:41.206Z,12.04
2017-08-21T04:31:09.196Z,12.01
2017-08-21T04:31:37.288Z,11.95
2017-08-21T04:32:05.519Z,12
2017-08-21T04:32:33.598Z,11.94
2017-08-21T04:33:01.655Z,12.01
2017-08-21T04:33:29.761Z,12.08
2017-08-21T04:33:57.929Z,12.05
2017-08-21T04:34:26.087Z,12.08
2017-08-21T04:34:54.326Z,12.1
2017-08-21T04:35:22.431Z,12.1
2017-08-21T04:35:50.548Z,12.07
2017-08-21T04:36:18.718Z,11.95
2017-08-21T04:36:46.901Z,12.08
2017-08-21T04:37:14.993Z,12.04
2017-08-21T04:37:43.124Z,11.94
2017-08-21T04:38:11.345Z,11.98
2017-08-21T04:38:39.602Z,12.08
2017-08-21T04:39:07.773Z,11.91
2017-08-21T04:39:35.933Z,11.94
2017-08-21T04:40:03.963Z,11.91
2017-08-21T04:40:32.177Z,11.98
2017-08-21T04:41:00.521Z,12.08
2017-08-21T04:41:28.770Z,12.07
2017-08-21T04:41:56.962Z,12.07
2017-08-21T04:42:25.218Z,11.95
2017-08-21T04:42:53.344Z,11.98
2017-08-21T04:43:21.304Z,11.98
2017-08-21T04:43:49.433Z,12.07
2017-08-21T04:44:17.683Z,12.01
2017-08-21T04:44:45.854Z,12.08
2017-08-21T04:45:13.927Z,12
2017-08-21T04:45:42.068Z,11.97
2017-08-21T04:46:10.295Z,11.95
2017-08-21T04:46:38.201Z,12
2017-08-21T04:47:06.553Z,11.91
2017-08-21T04:47:34.793Z,11.98
2017-08-21T04:48:02.976Z,11.91
2017-08-21T04:48:31.224Z,12
2017-08-21T04:48:59.184Z,11.94
2017-08-21T04:49:27.289Z,11.89
2017-08-21T04:49:55.460Z,11.94
2017-08-21T04:50:23.654Z,11.94
2017-08-21T04:50:51.792Z,11.85
2017-08-21T04:51:20.033Z,11.89
2017-08-21T04:51:48.227Z,11.95
2017-08-21T04:52:16.564Z,11.88
2017-08-21T04:52:44.606Z,11.86
2017-08-21T04:53:12.725Z,11.85
2017-08-21T04:53:40.931Z,11.91
2017-08-21T04:54:09.127Z,11.94
2017-08-21T04:54:37.058Z,11.84
2017-08-21T04:55:05.263Z,11.88
2017-08-21T04:55:33.403Z,11.86
2017-08-21T04:56:01.549Z,11.94
2017-08-21T04:56:29.713Z,11.88
2017-08-21T04:56:57.878Z,11.85
2017-08-21T04:57:26.220Z,11.85
2017-08-21T04:57:54.243Z,11.88
2017-08-21T04:58:22.303Z,11.88
2017-08-21T04:58:50.412Z,11.88
2017-08-21T04:59:18.465Z,11.88
2017-08-21T04:59:46.681Z,11.91
2017-08-21T05:00:14.912Z,11.82
2017-08-21T05:00:43.193Z,11.85
2017-08-21T05:01:11.439Z,11.86
2017-08-21T05:01:39.612Z,11.86
2017-08-21T05:02:07.721Z,11.73
2017-08-21T05:02:35.897Z,11.71
2017-08-21T05:03:04.080Z,11.71
2017-08-21T05:03:32.116Z,11.75
2017-08-21T05:04:00.172Z,11.64
2017-08-21T05:04:28.394Z,11.63
2017-08-21T05:04:56.621Z,11.66
2017-08-21T05:05:24.781Z,11.67
2017-08-21T05:05:53.008Z,11.64
2017-08-21T05:06:21.069Z,11.64
2017-08-21T05:06:49.100Z,11.67
2017-08-21T05:07:17.311Z,11.61
2017-08-21T05:07:45.693Z,11.46
2017-08-21T05:08:13.922Z,11.57
2017-08-21T05:08:41.961Z,11.49
2017-08-21T05:09:10.002Z,11.49
2017-08-21T05:09:38.136Z,11.42
2017-08-21T05:10:06.276Z,11.43
2017-08-21T05:10:34.440Z,11.45
2017-08-21T05:11:02.561Z,11.43
2017-08-21T05:11:30.897Z,11.45
2017-08-21T05:11:59.186Z,11.39
2017-08-21T05:12:27.453Z,11.51
2017-08-21T05:12:55.563Z,11.41
2017-08-21T05:13:23.670Z,11.48
2017-08-21T05:13:51.685Z,11.34
2017-08-21T05:14:19.949Z,11.31
2017-08-21T05:14:48.064Z,11.34
2017-08-21T05:15:16.186Z,11.35
2017-08-21T05:15:44.356Z,11.33
2017-08-21T05:16:12.587Z,11.34
2017-08-21T05:16:40.731Z,11.35
2017-08-21T05:17:09.021Z,11.34
2017-08-21T05:17:37.340Z,11.31
2017-08-21T05:18:05.494Z,11.27
2017-08-21T05:18:33.636Z,11.33
2017-08-21T05:19:01.729Z,11.3
2017-08-21T05:19:29.895Z,11.3
2017-08-21T05:19:57.907Z,11.38
2017-08-21T05:20:26.008Z,11.33
2017-08-21T05:20:54.077Z,11.33
2017-08-21T05:21:22.243Z,11.31
2017-08-21T05:21:50.427Z,11.35
2017-08-21T05:22:18.567Z,11.41
2017-08-21T05:22:46.920Z,11.33
2017-08-21T05:23:15.071Z,11.33
2017-08-21T05:23:43.020Z,11.23
2017-08-21T05:24:11.131Z,11.3
2017-08-21T05:24:39.226Z,11.23
2017-08-21T05:25:07.475Z,11.33
2017-08-21T05:25:35.491Z,11.21
2017-08-21T05:26:03.732Z,11.3
2017-08-21T05:26:31.866Z,11.31
2017-08-21T05:27:00.021Z,11.27
2017-08-21T05:27:27.884Z,11.26
2017-08-21T05:27:56.173Z,11.24
2017-08-21T05:28:24.286Z,11.26
2017-08-21T05:28:52.405Z,11.28
2017-08-21T05:29:20.505Z,11.18
2017-08-21T05:29:48.576Z,11.2
2017-08-21T05:30:16.749Z,11.28
2017-08-21T05:30:45.017Z,11.27
2017-08-21T05:31:13.294Z,11.24
2017-08-21T05:31:41.503Z,11.24
2017-08-21T05:32:09.737Z,11.21
2017-08-21T05:32:37.897Z,11.28
2017-08-21T05:33:06.810Z,11.21
2017-08-21T05:33:35.632Z,11.21
2017-08-21T05:34:03.882Z,11.21
2017-08-21T05:34:32.131Z,11.24
2017-08-21T05:35:00.137Z,11.21
2017-08-21T05:35:28.428Z,11.27
2017-08-21T05:35:56.678Z,11.26
2017-08-21T05:36:24.761Z,11.26
2017-08-21T05:36:52.988Z,11.26
2017-08-21T05:37:21.229Z,11.23
2017-08-21T05:37:49.518Z,11.3
2017-08-21T05:38:17.400Z,11.21
2017-08-21T05:38:45.622Z,11.33
2017-08-21T05:39:13.921Z,11.2
2017-08-21T05:39:42.066Z,11.3
2017-08-21T05:40:10.350Z,11.34
2017-08-21T05:40:38.570Z,11.23
2017-08-21T05:41:06.748Z,11.2
2017-08-21T05:41:34.971Z,11.24
2017-08-21T05:42:03.099Z,11.26
2017-08-21T05:42:31.233Z,11.24
2017-08-21T05:42:59.443Z,11.28
2017-08-21T05:43:27.512Z,11.27
2017-08-21T05:43:55.776Z,11.27
2017-08-21T05:44:23.873Z,11.26
2017-08-21T05:44:52.095Z,11.31
2017-08-21T05:45:20.361Z,11.33
2017-08-21T05:45:48.554Z,11.34
2017-08-21T05:46:16.738Z,11.23
2017-08-21T05:46:44.810Z,11.33
2017-08-21T05:47:13.064Z,11.2
2017-08-21T05:47:41.325Z,11.21
2017-08-21T05:48:09.606Z,11.24
2017-08-21T05:48:37.864Z,11.26
2017-08-21T05:49:06.031Z,11.26
2017-08-21T05:49:34.229Z,11.28
2017-08-21T05:50:02.415Z,11.15
2017-08-21T05:50:30.451Z,11.21
2017-08-21T05:50:58.585Z,11.21
2017-08-21T05:51:26.810Z,11.2
2017-08-21T05:51:55.072Z,11.23
2017-08-21T05:52:23.299Z,11.18
2017-08-21T05:52:51.538Z,11.2
2017-08-21T05:53:19.824Z,11.18
2017-08-21T05:53:47.965Z,11.21
2017-08-21T05:54:16.127Z,11.28
2017-08-21T05:54:44.375Z,11.21
2017-08-21T05:55:12.442Z,11.16
2017-08-21T05:55:40.606Z,11.24
2017-08-21T05:56:08.675Z,11.23
2017-08-21T05:56:36.663Z,11.13
2017-08-21T05:57:04.763Z,11.09
2017-08-21T05:57:32.794Z,11.15
2017-08-21T05:58:00.926Z,11.16
2017-08-21T05:58:29.237Z,11.15
2017-08-21T05:58:57.314Z,11.16
2017-08-21T05:59:25.506Z,11.27
2017-08-21T05:59:53.669Z,11.26
2017-08-21T06:00:21.864Z,11.16
2017-08-21T06:00:49.979Z,11.16
2017-08-21T06:01:18.156Z,11.27
2017-08-21T06:01:46.410Z,11.28
2017-08-21T06:02:14.535Z,11.24
2017-08-21T06:02:42.692Z,11.23
2017-08-21T06:03:11.061Z,11.18
2017-08-21T06:03:39.344Z,11.28
2017-08-21T06:04:07.573Z,11.23
2017-08-21T06:04:35.695Z,11.21